createdAt,value
2017-02-20T00:00:36.891Z,85.91
2017-02-20T00:01:50.471Z,86.14
2017-02-20T00:03:21.914Z,86.14
2017-02-20T00:04:35.597Z,85.91
2017-02-20T00:05:49.576Z,86
2017-02-20T00:07:04.150Z,86.29
2017-02-20T00:08:18.094Z,85.91
2017-02-20T00:09:32.193Z,86.19
2017-02-20T00:10:46.196Z,86.57
2017-02-20T00:12:25.605Z,86.95
2017-02-20T00:13:39.254Z,86.76
2017-02-20T00:14:53.062Z,86.86
2017-02-20T00:16:06.709Z,87.24
2017-02-20T00:17:20.441Z,87.14
2017-02-20T00:18:34.176Z,87.14
2017-02-20T00:19:48.532Z,86.67
2017-02-20T00:21:02.946Z,86.67
2017-02-20T00:22:16.887Z,86.76
2017-02-20T00:23:30.819Z,87.14
2017-02-20T00:24:44.386Z,86.86
2017-02-20T00:25:58.095Z,86.76
2017-02-20T00:27:12.400Z,86.29
2017-02-20T00:28:26.155Z,86.1
2017-02-20T00:29:40.114Z,86.1
2017-02-20T00:30:53.712Z,86
2017-02-20T00:32:07.211Z,86.19
2017-02-20T00:33:21.564Z,86.67
2017-02-20T00:34:35.073Z,86.76
2017-02-20T00:35:49.271Z,86.57
2017-02-20T00:37:02.946Z,86.67
2017-02-20T00:38:16.649Z,86.86
2017-02-20T00:39:31.429Z,86.67
2017-02-20T00:40:45.217Z,86.76
2017-02-20T00:42:01.597Z,86.19
2017-02-20T00:43:15.378Z,86.67
2017-02-20T00:44:30.713Z,86.57
2017-02-20T00:46:03.783Z,86
2017-02-20T00:47:17.396Z,86.47
2017-02-20T00:48:32.279Z,86.76
2017-02-20T00:49:45.860Z,86.1
2017-02-20T00:50:59.320Z,86.67
2017-02-20T00:52:13.276Z,87.52
2017-02-20T00:53:26.727Z,87.48
2017-02-20T00:54:40.362Z,87.57
2017-02-20T00:55:53.808Z,87.19
2017-02-20T00:57:07.402Z,87.43
2017-02-20T00:58:20.873Z,87.76
2017-02-20T00:59:35.009Z,88.05
2017-02-20T01:00:48.963Z,87.62
2017-02-20T01:02:02.996Z,87.48
2017-02-20T01:03:16.714Z,87.76
2017-02-20T01:04:30.526Z,87.62
2017-02-20T01:05:44.895Z,87.52
2017-02-20T01:06:58.539Z,87.43
2017-02-20T01:08:12.486Z,87.67
2017-02-20T01:09:26.186Z,87.81
2017-02-20T01:10:40.076Z,87.52
2017-02-20T01:11:53.922Z,87.81
2017-02-20T01:13:07.471Z,88
2017-02-20T01:14:21.079Z,88.09
2017-02-20T01:15:34.798Z,88
2017-02-20T01:16:48.861Z,87.62
2017-02-20T01:18:02.449Z,87.81
2017-02-20T01:19:16.093Z,87.52
2017-02-20T01:20:29.747Z,87.34
2017-02-20T01:21:44.252Z,87.52
2017-02-20T01:22:57.716Z,87.81
2017-02-20T01:24:11.438Z,86.86
2017-02-20T01:25:25.255Z,87.43
2017-02-20T01:26:38.885Z,86.76
2017-02-20T01:27:52.367Z,86.86
2017-02-20T01:29:05.920Z,86.86
2017-02-20T01:30:19.430Z,86.67
2017-02-20T01:31:33.099Z,86.67
2017-02-20T01:32:46.605Z,87.14
2017-02-20T01:34:00.215Z,86.67
2017-02-20T01:35:13.688Z,87.05
2017-02-20T01:36:27.350Z,87.43
2017-02-20T01:37:40.863Z,87.34
2017-02-20T01:38:54.416Z,87.62
2017-02-20T01:40:07.860Z,87.34
2017-02-20T01:41:21.932Z,87.52
2017-02-20T01:42:35.605Z,87.24
2017-02-20T01:43:49.559Z,86.67
2017-02-20T01:45:03.122Z,86.47
2017-02-20T01:46:22.183Z,86.95
2017-02-20T01:47:36.271Z,86.47
2017-02-20T01:48:49.772Z,86.1
2017-02-20T01:50:03.416Z,85.91
2017-02-20T01:51:16.890Z,86.19
2017-02-20T01:52:30.649Z,86.29
2017-02-20T01:53:44.816Z,86.1
2017-02-20T01:54:58.926Z,85.72
2017-02-20T01:56:12.364Z,86.47
2017-02-20T01:57:25.980Z,86.1
2017-02-20T01:58:42.454Z,86.19
2017-02-20T01:59:55.909Z,86.29
2017-02-20T02:01:09.580Z,86.29
2017-02-20T02:02:23.152Z,86.57
2017-02-20T02:03:36.718Z,86.76
2017-02-20T02:04:50.150Z,86.76
2017-02-20T02:06:03.729Z,86.76
2017-02-20T02:07:17.250Z,86.38
2017-02-20T02:08:31.296Z,86.57
2017-02-20T02:09:45.083Z,86.38
2017-02-20T02:10:58.663Z,87.14
2017-02-20T02:12:12.109Z,87.05
2017-02-20T02:13:25.760Z,86.86
2017-02-20T02:14:39.215Z,86.67
2017-02-20T02:15:52.875Z,86.47
2017-02-20T02:17:06.340Z,86.76
2017-02-20T02:18:20.026Z,87.05
2017-02-20T02:19:34.000Z,86.95
2017-02-20T02:20:47.566Z,87.1
2017-02-20T02:22:01.024Z,87.52
2017-02-20T02:23:15.121Z,87.71
2017-02-20T02:24:29.892Z,87.71
2017-02-20T02:25:43.446Z,87.67
2017-02-20T02:26:56.919Z,87.48
2017-02-20T02:28:10.462Z,87.43
2017-02-20T02:29:24.009Z,87.48
2017-02-20T02:30:37.715Z,87.81
2017-02-20T02:31:51.190Z,87.76
2017-02-20T02:33:04.780Z,88.62
2017-02-20T02:34:18.266Z,88.15
2017-02-20T02:35:31.856Z,88.34
2017-02-20T02:36:45.315Z,88.62
2017-02-20T02:37:59.299Z,88.05
2017-02-20T02:39:12.855Z,88.43
2017-02-20T02:40:26.508Z,88.43
2017-02-20T02:41:39.950Z,88.24
2017-02-20T02:42:53.562Z,88.43
2017-02-20T02:44:07.296Z,88.43
2017-02-20T02:45:21.074Z,88.24
2017-02-20T02:46:34.508Z,88.15
2017-02-20T02:47:48.204Z,88.34
2017-02-20T02:49:01.677Z,88.15
2017-02-20T02:50:15.445Z,88.05
2017-02-20T02:51:28.946Z,88.47
2017-02-20T02:52:42.580Z,88.28
2017-02-20T02:53:56.078Z,88.53
2017-02-20T02:55:09.635Z,88.43
2017-02-20T02:56:23.385Z,88.24
2017-02-20T02:57:37.181Z,88.15
2017-02-20T02:58:50.645Z,88.34
2017-02-20T03:00:04.217Z,88.71
2017-02-20T03:01:17.785Z,88.71
2017-02-20T03:02:31.312Z,88.81
2017-02-20T03:03:44.894Z,89.67
2017-02-20T03:04:58.856Z,89.28
2017-02-20T03:06:12.525Z,89.09
2017-02-20T03:07:26.153Z,88.81
2017-02-20T03:08:39.810Z,88.9
2017-02-20T03:09:53.439Z,88.81
2017-02-20T03:11:06.888Z,89.28
2017-02-20T03:12:20.619Z,89.28
2017-02-20T03:13:34.061Z,89.38
2017-02-20T03:14:49.836Z,89.47
2017-02-20T03:16:03.344Z,89.86
2017-02-20T03:17:17.019Z,90.05
2017-02-20T03:18:30.647Z,89.95
2017-02-20T03:19:44.924Z,89.67
2017-02-20T03:20:58.940Z,89.47
2017-02-20T03:22:13.192Z,89.38
2017-02-20T03:23:27.123Z,89.28
2017-02-20T03:24:40.690Z,89.28
2017-02-20T03:25:54.568Z,89.28
2017-02-20T03:27:08.350Z,89.95
2017-02-20T03:28:22.308Z,89.86
2017-02-20T03:29:35.932Z,89.57
2017-02-20T03:30:49.958Z,89.38
2017-02-20T03:32:04.279Z,90.23
2017-02-20T03:33:17.849Z,90.23
2017-02-20T03:34:31.609Z,89.67
2017-02-20T03:35:45.228Z,90.14
2017-02-20T03:36:59.329Z,89.95
2017-02-20T03:38:13.374Z,90.14
2017-02-20T03:39:27.511Z,90.33
2017-02-20T03:40:41.182Z,90.14
2017-02-20T03:41:55.413Z,90.42
2017-02-20T03:43:08.829Z,90.09
2017-02-20T03:44:22.493Z,90.66
2017-02-20T03:45:36.045Z,89.9
2017-02-20T03:46:50.249Z,89.9
2017-02-20T03:48:04.635Z,89.9
2017-02-20T03:49:19.013Z,90
2017-02-20T03:50:32.479Z,90.28
2017-02-20T03:51:46.408Z,89.9
2017-02-20T03:52:59.866Z,90.09
2017-02-20T03:54:15.209Z,90
2017-02-20T03:55:28.889Z,90.19
2017-02-20T03:56:42.600Z,89.9
2017-02-20T03:57:56.019Z,89.9
2017-02-20T03:59:10.145Z,89.81
2017-02-20T04:00:24.035Z,89.62
2017-02-20T04:01:37.568Z,89.43
2017-02-20T04:02:51.123Z,89.81
2017-02-20T04:04:04.713Z,89.53
2017-02-20T04:05:18.593Z,89.33
2017-02-20T04:06:32.170Z,89.43
2017-02-20T04:07:45.752Z,89.62
2017-02-20T04:08:59.304Z,89.62
2017-02-20T04:10:12.925Z,89.43
2017-02-20T04:11:26.534Z,89.43
2017-02-20T04:12:39.972Z,89.72
2017-02-20T04:13:53.524Z,89.53
2017-02-20T04:15:07.821Z,89.9
2017-02-20T04:16:21.451Z,89.81
2017-02-20T04:17:35.034Z,89.9
2017-02-20T04:18:48.567Z,89.72
2017-02-20T04:20:02.084Z,89.43
2017-02-20T04:21:15.747Z,89.53
2017-02-20T04:22:29.185Z,89.14
2017-02-20T04:23:42.711Z,89.53
2017-02-20T04:24:56.705Z,89.9
2017-02-20T04:26:10.397Z,89.81
2017-02-20T04:27:23.926Z,89.62
2017-02-20T04:28:37.560Z,89.43
2017-02-20T04:29:51.002Z,89.05
2017-02-20T04:31:06.844Z,89.43
2017-02-20T04:32:20.311Z,89.28
2017-02-20T04:33:33.984Z,89.47
2017-02-20T04:34:48.066Z,89.24
2017-02-20T04:36:02.052Z,89.43
2017-02-20T04:37:15.544Z,88.95
2017-02-20T04:38:29.085Z,88.76
2017-02-20T04:39:42.582Z,88.95
2017-02-20T04:40:56.252Z,88.81
2017-02-20T04:42:10.102Z,89.09
2017-02-20T04:43:23.818Z,88.71
2017-02-20T04:44:37.732Z,88.81
2017-02-20T04:45:51.276Z,88.71
2017-02-20T04:47:04.773Z,88.53
2017-02-20T04:48:18.878Z,89.28
2017-02-20T04:49:32.454Z,89.09
2017-02-20T04:50:46.030Z,89
2017-02-20T04:51:59.505Z,88.81
2017-02-20T04:53:13.210Z,88.24
2017-02-20T04:54:26.861Z,88.34
2017-02-20T04:55:40.812Z,88.34
2017-02-20T04:56:54.263Z,88.15
2017-02-20T04:58:08.357Z,88.43
2017-02-20T04:59:21.910Z,88.43
2017-02-20T05:00:35.463Z,88.15
2017-02-20T05:01:49.127Z,88.34
2017-02-20T05:03:02.742Z,88.53
2017-02-20T05:04:16.307Z,88.05
2017-02-20T05:05:29.957Z,87.95
2017-02-20T05:06:43.652Z,87.95
2017-02-20T05:07:57.251Z,88.53
2017-02-20T05:09:10.797Z,88.15
2017-02-20T05:10:24.351Z,88.71
2017-02-20T05:11:38.271Z,88.62
2017-02-20T05:12:51.829Z,87.95
2017-02-20T05:14:05.882Z,88.15
2017-02-20T05:15:19.427Z,88.71
2017-02-20T05:16:33.087Z,87.95
2017-02-20T05:17:46.698Z,87.95
2017-02-20T05:19:00.206Z,87.76
2017-02-20T05:20:13.840Z,87.38
2017-02-20T05:21:27.785Z,87.19
2017-02-20T05:22:41.370Z,87.86
2017-02-20T05:23:54.849Z,87.48
2017-02-20T05:25:08.476Z,87.38
2017-02-20T05:26:22.320Z,87.76
2017-02-20T05:27:36.295Z,88.05
2017-02-20T05:28:50.205Z,87.76
2017-02-20T05:30:04.085Z,87.57
2017-02-20T05:31:17.547Z,87.48
2017-02-20T05:32:31.682Z,87.86
2017-02-20T05:33:45.153Z,87.01
2017-02-20T05:34:58.695Z,87.1
2017-02-20T05:36:12.649Z,87.1
2017-02-20T05:37:26.806Z,87.01
2017-02-20T05:38:40.478Z,86.91
2017-02-20T05:39:54.049Z,88.24
2017-02-20T05:41:08.432Z,87.43
2017-02-20T05:42:22.037Z,86.95
2017-02-20T05:43:35.499Z,86.19
2017-02-20T05:44:49.124Z,86.1
2017-02-20T05:46:03.186Z,85.62
2017-02-20T05:47:19.509Z,85.81
2017-02-20T05:48:32.967Z,86.29
2017-02-20T05:49:46.746Z,85.91
2017-02-20T05:51:00.704Z,85.53
2017-02-20T05:52:14.269Z,86.29
2017-02-20T05:53:28.537Z,85.81
2017-02-20T05:54:42.112Z,85.81
2017-02-20T05:55:55.608Z,86.05
2017-02-20T05:57:09.491Z,85.77
2017-02-20T05:58:22.961Z,86.29
2017-02-20T05:59:36.529Z,85.86
2017-02-20T06:00:49.981Z,86.15
2017-02-20T06:02:03.925Z,86.24
2017-02-20T06:03:17.380Z,86.24
2017-02-20T06:04:31.113Z,86.05
2017-02-20T06:05:44.586Z,85.86
2017-02-20T06:06:58.627Z,86.24
2017-02-20T06:08:12.344Z,85.77
2017-02-20T06:09:26.348Z,85.96
2017-02-20T06:10:39.771Z,86.24
2017-02-20T06:11:53.317Z,86.43
2017-02-20T06:13:06.852Z,86.05
2017-02-20T06:14:20.413Z,86.63
2017-02-20T06:15:34.314Z,86.15
2017-02-20T06:16:47.919Z,86.91
2017-02-20T06:18:01.519Z,86.91
2017-02-20T06:19:15.475Z,86.72
2017-02-20T06:20:29.005Z,86.34
2017-02-20T06:21:42.539Z,86.91
2017-02-20T06:22:55.965Z,86.72
2017-02-20T06:24:10.228Z,86.82
2017-02-20T06:25:23.815Z,87.01
2017-02-20T06:26:37.399Z,86.63
2017-02-20T06:27:50.884Z,86.34
2017-02-20T06:29:04.575Z,86.24
2017-02-20T06:30:18.466Z,86.05
2017-02-20T06:31:32.110Z,86.34
2017-02-20T06:32:45.551Z,86.72
2017-02-20T06:33:59.247Z,86.53
2017-02-20T06:35:12.678Z,86.63
2017-02-20T06:36:26.257Z,86.72
2017-02-20T06:37:39.910Z,86.24
2017-02-20T06:38:53.470Z,86.34
2017-02-20T06:40:07.103Z,86.82
2017-02-20T06:41:20.680Z,86.53
2017-02-20T06:42:34.133Z,86.63
2017-02-20T06:43:47.748Z,86.43
2017-02-20T06:45:01.342Z,85.86
2017-02-20T06:46:15.046Z,86.05
2017-02-20T06:47:28.526Z,86.72
2017-02-20T06:48:42.530Z,86.72
2017-02-20T06:49:56.125Z,86.82
2017-02-20T06:51:09.805Z,86.72
2017-02-20T06:52:23.309Z,86.72
2017-02-20T06:53:37.126Z,86.34
2017-02-20T06:54:51.056Z,86.43
2017-02-20T06:56:04.641Z,86.15
2017-02-20T06:57:18.504Z,86.05
2017-02-20T06:58:32.485Z,85.96
2017-02-20T06:59:46.026Z,86.34
2017-02-20T07:01:00.237Z,85.58
2017-02-20T07:02:13.703Z,85.68
2017-02-20T07:03:29.457Z,85.68
2017-02-20T07:04:42.929Z,85.68
2017-02-20T07:05:57.032Z,85.58
2017-02-20T07:07:10.477Z,85.39
2017-02-20T07:08:24.974Z,84.77
2017-02-20T07:09:39.325Z,85.05
2017-02-20T07:10:53.007Z,85.15
2017-02-20T07:12:06.482Z,85.72
2017-02-20T07:13:20.482Z,84.48
2017-02-20T07:14:33.974Z,84.58
2017-02-20T07:15:47.956Z,84.95
2017-02-20T07:17:01.515Z,85.15
2017-02-20T07:18:15.088Z,84.95
2017-02-20T07:19:28.947Z,84.95
2017-02-20T07:20:42.493Z,84.77
2017-02-20T07:21:56.055Z,85.11
2017-02-20T07:23:09.653Z,85.15
2017-02-20T07:24:23.151Z,85.15
2017-02-20T07:25:36.743Z,85.62
2017-02-20T07:26:50.169Z,84.95
2017-02-20T07:28:04.270Z,84.86
2017-02-20T07:29:17.733Z,84.48
2017-02-20T07:30:31.282Z,84.77
2017-02-20T07:31:44.777Z,84.67
2017-02-20T07:32:58.485Z,84.1
2017-02-20T07:34:12.050Z,84.2
2017-02-20T07:35:25.589Z,84.77
2017-02-20T07:36:39.040Z,84.01
2017-02-20T07:37:53.131Z,84.2
2017-02-20T07:39:06.998Z,84.1
2017-02-20T07:40:20.537Z,84.1
2017-02-20T07:41:34.502Z,84.2
2017-02-20T07:42:48.113Z,84.01
2017-02-20T07:44:01.590Z,83.91
2017-02-20T07:45:15.159Z,83.91
2017-02-20T07:46:29.032Z,84.29
2017-02-20T07:47:42.826Z,83.91
2017-02-20T07:48:56.848Z,83.1
2017-02-20T07:50:10.836Z,82.91
2017-02-20T07:51:24.798Z,83.29
2017-02-20T07:52:38.495Z,83.39
2017-02-20T07:53:52.049Z,83.29
2017-02-20T07:55:05.695Z,83
2017-02-20T07:56:19.685Z,82.62
2017-02-20T07:57:33.301Z,82.34
2017-02-20T07:58:46.830Z,82.53
2017-02-20T08:00:00.498Z,81.67
2017-02-20T08:01:13.959Z,82.24
2017-02-20T08:02:27.660Z,82.34
2017-02-20T08:03:41.537Z,82.62
2017-02-20T08:04:55.267Z,82.62
2017-02-20T08:06:08.718Z,82.24
2017-02-20T08:07:22.297Z,82.62
2017-02-20T08:08:35.777Z,82.53
2017-02-20T08:09:49.826Z,82.34
2017-02-20T08:11:03.287Z,82.24
2017-02-20T08:12:16.856Z,82.24
2017-02-20T08:13:30.806Z,82.24
2017-02-20T08:14:44.804Z,82.62
2017-02-20T08:15:58.466Z,82.53
2017-02-20T08:17:25.878Z,82.34
2017-02-20T08:18:39.503Z,82.62
2017-02-20T08:19:55.366Z,83
2017-02-20T08:21:09.560Z,83.19
2017-02-20T08:22:23.236Z,82.91
2017-02-20T08:23:37.323Z,83.48
2017-02-20T08:24:51.514Z,83.19
2017-02-20T08:26:05.283Z,83.39
2017-02-20T08:27:18.832Z,83.1
2017-02-20T08:28:32.370Z,82.05
2017-02-20T08:29:46.009Z,82.19
2017-02-20T08:30:59.673Z,82
2017-02-20T08:32:13.254Z,81.81
2017-02-20T08:33:26.713Z,81.43
2017-02-20T08:34:40.400Z,81.43
2017-02-20T08:35:54.139Z,80.95
2017-02-20T08:38:26.920Z,81.24
2017-02-20T08:39:45.604Z,81.14
2017-02-20T08:41:00.011Z,80.76
2017-02-20T08:42:13.433Z,80.66
2017-02-20T08:43:27.404Z,80.38
2017-02-20T08:44:41.408Z,80.76
2017-02-20T08:45:55.164Z,81.05
2017-02-20T08:47:10.355Z,81.24
2017-02-20T08:48:23.860Z,80.66
2017-02-20T08:49:37.691Z,80.47
2017-02-20T08:50:51.154Z,80.66
2017-02-20T08:52:04.823Z,79.57
2017-02-20T08:53:18.397Z,80.13
2017-02-20T08:54:32.440Z,80.1
2017-02-20T08:55:46.397Z,80.38
2017-02-20T08:57:00.516Z,81.14
2017-02-20T08:58:14.025Z,80.38
2017-02-20T08:59:37.312Z,80.57
2017-02-20T09:00:50.896Z,80.86
2017-02-20T09:02:04.677Z,80.95
2017-02-20T09:03:18.210Z,80.57
2017-02-20T09:04:31.670Z,80.29
2017-02-20T09:05:45.258Z,80
2017-02-20T09:06:58.754Z,80.42
2017-02-20T09:08:12.718Z,80.76
2017-02-20T09:09:26.261Z,80.57
2017-02-20T09:10:39.820Z,80.8
2017-02-20T09:11:53.435Z,80.9
2017-02-20T09:13:07.041Z,80.76
2017-02-20T09:14:20.475Z,80.52
2017-02-20T09:15:34.131Z,80.23
2017-02-20T09:16:47.617Z,80.99
2017-02-20T09:18:01.489Z,81.66
2017-02-20T09:19:15.482Z,81.28
2017-02-20T09:20:29.121Z,81.37
2017-02-20T09:21:42.999Z,81.76
2017-02-20T09:22:56.633Z,82.14
2017-02-20T09:24:10.068Z,82.48
2017-02-20T09:25:23.626Z,82.57
2017-02-20T09:26:37.107Z,82.76
2017-02-20T09:27:50.682Z,82.42
2017-02-20T09:29:04.218Z,82.32
2017-02-20T09:30:18.117Z,83.09
2017-02-20T09:31:32.025Z,82.42
2017-02-20T09:32:45.600Z,82.7
2017-02-20T09:33:59.165Z,82.7
2017-02-20T09:35:12.764Z,82.42
2017-02-20T09:36:26.294Z,82.42
2017-02-20T09:37:42.621Z,82.04
2017-02-20T09:38:56.127Z,82.23
2017-02-20T09:40:09.682Z,82.23
2017-02-20T09:41:23.165Z,82.14
2017-02-20T09:42:37.216Z,82.32
2017-02-20T09:43:51.034Z,81.95
2017-02-20T09:45:04.634Z,81.95
2017-02-20T09:46:18.074Z,81.37
2017-02-20T09:47:31.623Z,81.95
2017-02-20T09:48:45.089Z,82.42
2017-02-20T09:49:59.564Z,82.04
2017-02-20T09:51:13.021Z,81.85
2017-02-20T09:52:27.188Z,81.18
2017-02-20T09:53:40.678Z,81.03
2017-02-20T09:54:54.805Z,80.84
2017-02-20T09:56:08.547Z,80.65
2017-02-20T09:57:22.194Z,80.55
2017-02-20T09:58:36.275Z,80.94
2017-02-20T09:59:49.978Z,80.46
2017-02-20T10:01:03.923Z,79.99
2017-02-20T10:02:17.886Z,79.99
2017-02-20T10:03:31.805Z,79.8
2017-02-20T10:04:46.012Z,79.51
2017-02-20T10:05:59.595Z,79.7
2017-02-20T10:07:13.198Z,79.41
2017-02-20T10:08:26.941Z,79.8
2017-02-20T10:09:40.513Z,79.6
2017-02-20T10:10:54.067Z,79.13
2017-02-20T10:12:07.867Z,79.03
2017-02-20T10:13:21.456Z,79.13
2017-02-20T10:14:35.689Z,78.94
2017-02-20T10:15:49.330Z,79.03
2017-02-20T10:17:03.125Z,79.13
2017-02-20T10:18:16.699Z,78.94
2017-02-20T10:19:31.275Z,79.22
2017-02-20T10:20:45.147Z,78.94
2017-02-20T10:21:58.961Z,79.03
2017-02-20T10:23:12.497Z,78.46
2017-02-20T10:24:26.640Z,78.37
2017-02-20T10:25:40.224Z,78.31
2017-02-20T10:26:54.332Z,78.46
2017-02-20T10:28:08.749Z,79.13
2017-02-20T10:29:22.398Z,78.85
2017-02-20T10:30:35.959Z,78.41
2017-02-20T10:31:51.341Z,78.03
2017-02-20T10:33:06.080Z,78.03
2017-02-20T10:34:19.795Z,77.45
2017-02-20T10:35:33.935Z,77.26
2017-02-20T10:36:47.895Z,77.07
2017-02-20T10:38:02.594Z,76.88
2017-02-20T10:39:17.371Z,76.69
2017-02-20T10:40:31.010Z,76.59
2017-02-20T10:41:44.632Z,76.79
2017-02-20T10:42:58.302Z,76.79
2017-02-20T10:44:12.377Z,76.03
2017-02-20T10:45:26.619Z,75.84
2017-02-20T10:46:40.230Z,76.31
2017-02-20T10:47:53.854Z,76.03
2017-02-20T10:49:07.965Z,75.59
2017-02-20T10:50:21.905Z,75.49
2017-02-20T10:51:35.905Z,76.16
2017-02-20T10:52:50.676Z,75.01
2017-02-20T10:54:06.883Z,74.73
2017-02-20T10:55:20.424Z,74.54
2017-02-20T10:56:34.070Z,74.16
2017-02-20T10:57:47.925Z,74.25
2017-02-20T10:59:01.582Z,74.73
2017-02-20T11:00:15.116Z,74.25
2017-02-20T11:01:29.136Z,74.16
2017-02-20T11:02:43.030Z,73.87
2017-02-20T11:03:57.456Z,73.96
2017-02-20T11:05:10.989Z,73.14
2017-02-20T11:06:24.581Z,72.76
2017-02-20T11:07:38.107Z,73.62
2017-02-20T11:08:51.823Z,73.49
2017-02-20T11:10:05.739Z,73.43
2017-02-20T11:11:19.333Z,73.58
2017-02-20T11:12:32.791Z,73.49
2017-02-20T11:13:46.488Z,73.01
2017-02-20T11:14:59.995Z,72.96
2017-02-20T11:16:13.881Z,72.86
2017-02-20T11:17:27.968Z,73.52
2017-02-20T11:18:41.664Z,73.3
2017-02-20T11:19:55.561Z,73.01
2017-02-20T11:21:09.151Z,72.63
2017-02-20T11:22:22.928Z,72.48
2017-02-20T11:23:36.823Z,72.76
2017-02-20T11:24:50.384Z,72.76
2017-02-20T11:26:03.964Z,72.86
2017-02-20T11:27:17.465Z,72.76
2017-02-20T11:28:32.140Z,72.96
2017-02-20T11:29:46.380Z,72.82
2017-02-20T11:30:59.980Z,73.58
2017-02-20T11:32:13.490Z,73.49
2017-02-20T11:33:27.102Z,73.68
2017-02-20T11:38:05.614Z,74.06
2017-02-20T11:39:19.221Z,73.77
2017-02-20T11:40:33.258Z,73.77
2017-02-20T11:41:46.890Z,73.68
2017-02-20T11:43:00.404Z,73.96
2017-02-20T11:44:14.043Z,73.68
2017-02-20T11:45:27.604Z,73.39
2017-02-20T11:46:42.839Z,73.68
2017-02-20T11:47:56.765Z,73.77
2017-02-20T11:49:10.355Z,74.06
2017-02-20T11:50:24.253Z,73.68
2017-02-20T11:51:38.652Z,74.25
2017-02-20T11:52:52.616Z,74.16
2017-02-20T11:54:06.712Z,74.06
2017-02-20T11:55:21.336Z,74.54
2017-02-20T11:56:35.493Z,74.54
2017-02-20T11:57:48.947Z,74.63
2017-02-20T11:59:03.000Z,74.82
2017-02-20T12:00:16.547Z,75.11
2017-02-20T12:01:30.286Z,74.44
2017-02-20T12:02:44.581Z,74.73
2017-02-20T12:03:58.180Z,74.73
2017-02-20T12:05:11.961Z,73.96
2017-02-20T12:06:25.783Z,74.35
2017-02-20T12:07:39.350Z,74.16
2017-02-20T12:08:52.913Z,74.16
2017-02-20T12:10:06.380Z,74.63
2017-02-20T12:11:21.104Z,74.35
2017-02-20T12:12:36.989Z,73.96
2017-02-20T12:13:50.452Z,74.16
2017-02-20T12:15:04.125Z,74.44
2017-02-20T12:16:17.798Z,74.25
2017-02-20T12:17:31.945Z,74.82
2017-02-20T12:18:45.919Z,74.54
2017-02-20T12:19:59.468Z,74.16
2017-02-20T12:21:12.918Z,74.73
2017-02-20T12:22:26.580Z,74.44
2017-02-20T12:23:40.421Z,74.63
2017-02-20T12:24:54.003Z,74.44
2017-02-20T12:26:07.467Z,75.3
2017-02-20T12:27:21.033Z,74.69
2017-02-20T12:28:34.612Z,75.16
2017-02-20T12:29:48.545Z,74.98
2017-02-20T12:31:02.421Z,75.16
2017-02-20T12:32:16.487Z,74.98
2017-02-20T12:33:30.282Z,75.74
2017-02-20T12:34:43.919Z,75.64
2017-02-20T12:35:57.749Z,75.55
2017-02-20T12:37:11.494Z,75.07
2017-02-20T12:38:25.553Z,74.98
2017-02-20T12:39:39.183Z,74.98
2017-02-20T12:40:52.694Z,75.16
2017-02-20T12:42:06.563Z,74.79
2017-02-20T12:43:20.532Z,74.92
2017-02-20T12:44:34.144Z,75.26
2017-02-20T12:45:47.607Z,75.84
2017-02-20T12:47:01.230Z,75.74
2017-02-20T12:48:14.965Z,75.26
2017-02-20T12:49:28.767Z,74.88
2017-02-20T12:50:42.243Z,75.16
2017-02-20T12:51:55.853Z,75.26
2017-02-20T12:53:09.382Z,75.01
2017-02-20T12:54:23.404Z,75.3
2017-02-20T12:55:36.951Z,74.82
2017-02-20T12:56:50.508Z,75.01
2017-02-20T12:58:04.393Z,74.44
2017-02-20T12:59:18.959Z,74.92
2017-02-20T13:00:32.714Z,75.2
2017-02-20T13:01:46.733Z,75.11
2017-02-20T13:03:00.202Z,74.82
2017-02-20T13:04:13.771Z,74.44
2017-02-20T13:05:27.365Z,74.82
2017-02-20T13:06:41.248Z,74.73
2017-02-20T13:07:54.862Z,74.63
2017-02-20T13:09:08.494Z,74.54
2017-02-20T13:10:22.067Z,74.82
2017-02-20T13:11:35.653Z,74.73
2017-02-20T13:12:49.551Z,74.73
2017-02-20T13:14:03.640Z,74.44
2017-02-20T13:15:17.617Z,74.92
2017-02-20T13:16:31.682Z,74.44
2017-02-20T13:17:45.155Z,74.63
2017-02-20T13:18:59.866Z,74.82
2017-02-20T13:20:13.364Z,74.73
2017-02-20T13:21:27.105Z,75.11
2017-02-20T13:22:41.087Z,75.26
2017-02-20T13:23:54.731Z,74.69
2017-02-20T13:25:09.760Z,75.26
2017-02-20T13:26:23.591Z,75.07
2017-02-20T13:27:37.129Z,75.36
2017-02-20T13:28:52.938Z,75.3
2017-02-20T13:30:06.775Z,74.73
2017-02-20T13:31:21.210Z,75.01
2017-02-20T13:32:34.677Z,74.98
2017-02-20T13:33:48.468Z,74.92
2017-02-20T13:35:02.000Z,75.11
2017-02-20T13:36:16.054Z,75.11
2017-02-20T13:37:29.840Z,75.3
2017-02-20T13:38:43.470Z,74.98
2017-02-20T13:39:56.913Z,75.49
2017-02-20T13:41:10.725Z,75.64
2017-02-20T13:42:24.322Z,75.55
2017-02-20T13:43:39.007Z,75.74
2017-02-20T13:44:52.937Z,75.84
2017-02-20T13:46:06.943Z,75.96
2017-02-20T13:47:21.044Z,75.96
2017-02-20T13:48:34.682Z,75.78
2017-02-20T13:49:48.768Z,75.74
2017-02-20T13:51:03.160Z,75.96
2017-02-20T13:52:17.255Z,76.06
2017-02-20T13:53:30.824Z,76.31
2017-02-20T13:54:44.811Z,76.73
2017-02-20T13:55:58.706Z,76.69
2017-02-20T13:57:12.265Z,77.26
2017-02-20T13:58:26.355Z,77.36
2017-02-20T13:59:39.872Z,77.55
2017-02-20T14:00:54.256Z,77.45
2017-02-20T14:02:07.725Z,77.45
2017-02-20T14:03:21.422Z,77.45
2017-02-20T14:04:35.038Z,77.64
2017-02-20T14:05:48.613Z,77.93
2017-02-20T14:07:02.531Z,77.83
2017-02-20T14:08:16.261Z,78.5
2017-02-20T14:09:30.364Z,78.78
2017-02-20T14:10:43.988Z,78.22
2017-02-20T14:11:57.875Z,79.17
2017-02-20T14:13:11.493Z,79.64
2017-02-20T14:14:25.410Z,79.46
2017-02-20T14:15:40.248Z,79.83
2017-02-20T14:16:53.740Z,79.55
2017-02-20T14:18:07.760Z,80.31
2017-02-20T14:19:22.297Z,80.12
2017-02-20T14:20:37.395Z,80.22
2017-02-20T14:21:50.908Z,80.12
2017-02-20T14:23:04.726Z,79.83
2017-02-20T14:24:19.115Z,80.02
2017-02-20T14:25:51.340Z,80.5
2017-02-20T14:27:04.920Z,81.07
2017-02-20T14:28:18.799Z,81.07
2017-02-20T14:29:32.503Z,81.93
2017-02-20T14:30:46.000Z,81.93
2017-02-20T14:31:59.822Z,82.21
2017-02-20T14:33:13.309Z,82.31
2017-02-20T14:34:26.907Z,83.45
2017-02-20T14:35:40.811Z,83.89
2017-02-20T14:36:54.405Z,84.27
2017-02-20T14:38:08.109Z,84.08
2017-02-20T14:39:21.707Z,84.65
2017-02-20T14:40:35.953Z,84.65
2017-02-20T14:41:49.555Z,84.65
2017-02-20T14:43:03.003Z,84.84
2017-02-20T14:44:26.103Z,85.22
2017-02-20T14:46:00.393Z,86.46
2017-02-20T14:47:14.002Z,86.46
2017-02-20T14:48:27.897Z,86.27
2017-02-20T14:49:41.679Z,86.46
2017-02-20T14:50:55.747Z,86.84
2017-02-20T14:52:09.776Z,86.84
2017-02-20T14:53:23.913Z,86.55
2017-02-20T14:54:37.910Z,86.84
2017-02-20T14:55:51.412Z,86.55
2017-02-20T14:57:05.518Z,86.75
2017-02-20T14:58:18.985Z,86.55
2017-02-20T14:59:32.984Z,86.75
2017-02-20T15:00:46.531Z,87.13
2017-02-20T15:02:01.760Z,87.13
2017-02-20T15:03:15.396Z,87.13
2017-02-20T15:04:29.762Z,86.84
2017-02-20T15:05:43.359Z,86.84
2017-02-20T15:06:56.927Z,87.13
2017-02-20T15:08:10.733Z,86.94
2017-02-20T15:09:24.327Z,86.94
2017-02-20T15:10:38.207Z,86.94
2017-02-20T15:11:51.821Z,86.65
2017-02-20T15:13:05.317Z,86.46
2017-02-20T15:14:19.321Z,86.75
2017-02-20T15:15:33.695Z,86.75
2017-02-20T15:16:47.433Z,87.13
2017-02-20T15:18:00.926Z,87.7
2017-02-20T15:19:14.537Z,87.32
2017-02-20T15:20:28.202Z,87.51
2017-02-20T15:21:41.874Z,87.51
2017-02-20T15:22:55.651Z,87.6
2017-02-20T15:24:09.222Z,87.7
2017-02-20T15:25:22.707Z,87.98
2017-02-20T15:26:36.707Z,87.6
2017-02-20T15:27:50.189Z,87.7
2017-02-20T15:29:03.789Z,87.98
2017-02-20T15:30:17.286Z,88.04
2017-02-20T15:31:31.369Z,88.18
2017-02-20T15:32:45.315Z,88.84
2017-02-20T15:33:58.908Z,88.84
2017-02-20T15:35:12.388Z,89.18
2017-02-20T15:36:26.115Z,89.27
2017-02-20T15:37:39.747Z,89.94
2017-02-20T15:38:53.752Z,90.13
2017-02-20T15:40:07.257Z,91.08
2017-02-20T15:41:21.722Z,91.37
2017-02-20T15:42:35.784Z,91.94
2017-02-20T15:43:49.828Z,91.46
2017-02-20T15:45:03.340Z,90.99
2017-02-20T15:46:17.423Z,91.56
2017-02-20T15:47:30.892Z,92.03
2017-02-20T15:48:44.868Z,91.84
2017-02-20T15:49:58.996Z,92.32
2017-02-20T15:51:12.808Z,92.03
2017-02-20T15:52:26.270Z,92.99
2017-02-20T15:53:39.931Z,92.51
2017-02-20T15:54:54.291Z,92.6
2017-02-20T15:56:07.896Z,93.18
2017-02-20T15:57:21.920Z,93.55
2017-02-20T15:58:35.757Z,93.55
2017-02-20T15:59:49.212Z,94.03
2017-02-20T16:01:02.793Z,94.13